sensor_id;sensor_type;location;lat;lon;timestamp;P1;durP1;ratioP1;P2;durP2;ratioP2
21022;SDS011;10669;51.076;3.714;2022-09-27T00:02:25;11.23;;;1.60;;
21022;SDS011;10669;51.076;3.714;2022-09-27T00:04:52;6.63;;;2.40;;
21022;SDS011;10669;51.076;3.714;2022-09-27T00:07:17;9.20;;;1.97;;
21022;SDS011;10669;51.076;3.714;2022-09-27T00:09:44;9.10;;;1.70;;
21022;SDS011;10669;51.076;3.714;2022-09-27T00:12:10;7.50;;;1.70;;
21022;SDS011;10669;51.076;3.714;2022-09-27T00:14:35;5.90;;;1.20;;
21022;SDS011;10669;51.076;3.714;2022-09-27T00:17:01;6.97;;;1.70;;
21022;SDS011;10669;51.076;3.714;2022-09-27T00:19:27;5.37;;;1.40;;
21022;SDS011;10669;51.076;3.714;2022-09-27T00:21:53;3.73;;;1.30;;
21022;SDS011;10669;51.076;3.714;2022-09-27T00:24:20;10.27;;;1.60;;
21022;SDS011;10669;51.076;3.714;2022-09-27T00:26:47;7.87;;;1.27;;
21022;SDS011;10669;51.076;3.714;2022-09-27T00:29:14;3.77;;;1.23;;
21022;SDS011;10669;51.076;3.714;2022-09-27T00:31:42;6.33;;;1.00;;
21022;SDS011;10669;51.076;3.714;2022-09-27T00:34:10;8.20;;;1.37;;
21022;SDS011;10669;51.076;3.714;2022-09-27T00:36:45;3.93;;;1.30;;
21022;SDS011;10669;51.076;3.714;2022-09-27T00:39:11;9.07;;;1.33;;
21022;SDS011;10669;51.076;3.714;2022-09-27T00:41:38;6.87;;;1.30;;
21022;SDS011;10669;51.076;3.714;2022-09-27T00:47:13;8.07;;;1.00;;
21022;SDS011;10669;51.076;3.714;2022-09-27T00:49:44;8.33;;;1.20;;
21022;SDS011;10669;51.076;3.714;2022-09-27T00:52:16;5.03;;;1.20;;
21022;SDS011;10669;51.076;3.714;2022-09-27T00:54:52;5.77;;;1.23;;
21022;SDS011;10669;51.076;3.714;2022-09-27T00:57:21;6.53;;;1.17;;
21022;SDS011;10669;51.076;3.714;2022-09-27T00:59:51;8.50;;;1.27;;
21022;SDS011;10669;51.076;3.714;2022-09-27T01:02:30;7.50;;;1.40;;
21022;SDS011;10669;51.076;3.714;2022-09-27T01:04:58;8.47;;;1.67;;
21022;SDS011;10669;51.076;3.714;2022-09-27T01:07:24;4.77;;;1.37;;
21022;SDS011;10669;51.076;3.714;2022-09-27T01:09:51;8.17;;;1.43;;
21022;SDS011;10669;51.076;3.714;2022-09-27T01:32:05;5.60;;;1.17;;
21022;SDS011;10669;51.076;3.714;2022-09-27T01:35:15;3.37;;;0.90;;
21022;SDS011;10669;51.076;3.714;2022-09-27T01:37:34;6.70;;;1.20;;
21022;SDS011;10669;51.076;3.714;2022-09-27T01:40:21;4.47;;;1.10;;
21022;SDS011;10669;51.076;3.714;2022-09-27T01:43:28;4.30;;;1.00;;
21022;SDS011;10669;51.076;3.714;2022-09-27T01:45:56;3.70;;;1.10;;
21022;SDS011;10669;51.076;3.714;2022-09-27T01:48:30;10.23;;;1.13;;
21022;SDS011;10669;51.076;3.714;2022-09-27T01:51:06;5.30;;;1.00;;
21022;SDS011;10669;51.076;3.714;2022-09-27T01:53:51;6.00;;;1.07;;
21022;SDS011;10669;51.076;3.714;2022-09-27T01:56:25;3.90;;;1.30;;
21022;SDS011;10669;51.076;3.714;2022-09-27T02:01:36;1.73;;;0.73;;
21022;SDS011;10669;51.076;3.714;2022-09-27T02:04:04;3.77;;;0.83;;
21022;SDS011;10669;51.076;3.714;2022-09-27T02:06:34;4.70;;;1.27;;
21022;SDS011;10669;51.076;3.714;2022-09-27T02:11:41;8.30;;;1.40;;
21022;SDS011;10669;51.076;3.714;2022-09-27T02:16:51;3.90;;;0.90;;
21022;SDS011;10669;51.076;3.714;2022-09-27T02:24:59;3.37;;;1.00;;
21022;SDS011;10669;51.076;3.714;2022-09-27T02:30:01;6.77;;;1.37;;
21022;SDS011;10669;51.076;3.714;2022-09-27T02:32:32;3.43;;;1.07;;
21022;SDS011;10669;51.076;3.714;2022-09-27T02:35:00;4.77;;;0.90;;
21022;SDS011;10669;51.076;3.714;2022-09-27T02:37:31;8.50;;;1.30;;
21022;SDS011;10669;51.076;3.714;2022-09-27T02:39:57;3.23;;;1.30;;
21022;SDS011;10669;51.076;3.714;2022-09-27T02:42:23;5.80;;;1.30;;
21022;SDS011;10669;51.076;3.714;2022-09-27T02:44:50;6.77;;;1.13;;
21022;SDS011;10669;51.076;3.714;2022-09-27T02:50:42;5.10;;;1.10;;
21022;SDS011;10669;51.076;3.714;2022-09-27T02:53:10;7.03;;;1.37;;
21022;SDS011;10669;51.076;3.714;2022-09-27T03:01:30;5.77;;;1.27;;
21022;SDS011;10669;51.076;3.714;2022-09-27T03:06:40;3.97;;;1.33;;
21022;SDS011;10669;51.076;3.714;2022-09-27T03:09:18;7.63;;;1.43;;
21022;SDS011;10669;51.076;3.714;2022-09-27T03:11:44;5.03;;;1.13;;
21022;SDS011;10669;51.076;3.714;2022-09-27T03:14:11;6.40;;;1.53;;
21022;SDS011;10669;51.076;3.714;2022-09-27T03:16:36;7.37;;;1.20;;
21022;SDS011;10669;51.076;3.714;2022-09-27T03:19:02;4.27;;;1.20;;
21022;SDS011;10669;51.076;3.714;2022-09-27T03:21:30;4.37;;;1.37;;
21022;SDS011;10669;51.076;3.714;2022-09-27T03:23:56;8.10;;;1.67;;
21022;SDS011;10669;51.076;3.714;2022-09-27T03:26:22;7.17;;;1.70;;
21022;SDS011;10669;51.076;3.714;2022-09-27T03:28:50;5.60;;;1.13;;
21022;SDS011;10669;51.076;3.714;2022-09-27T03:31:17;7.60;;;1.50;;
21022;SDS011;10669;51.076;3.714;2022-09-27T03:33:44;9.87;;;1.57;;
21022;SDS011;10669;51.076;3.714;2022-09-27T03:36:09;5.13;;;1.20;;
21022;SDS011;10669;51.076;3.714;2022-09-27T03:38:36;6.13;;;1.37;;
21022;SDS011;10669;51.076;3.714;2022-09-27T03:41:02;6.07;;;1.90;;
21022;SDS011;10669;51.076;3.714;2022-09-27T03:43:29;3.93;;;1.73;;
21022;SDS011;10669;51.076;3.714;2022-09-27T03:45:55;10.30;;;1.40;;
21022;SDS011;10669;51.076;3.714;2022-09-27T03:48:22;8.77;;;1.57;;
21022;SDS011;10669;51.076;3.714;2022-09-27T03:50:49;7.40;;;2.20;;
21022;SDS011;10669;51.076;3.714;2022-09-27T03:53:15;10.03;;;3.30;;
21022;SDS011;10669;51.076;3.714;2022-09-27T03:55:43;13.20;;;3.90;;
21022;SDS011;10669;51.076;3.714;2022-09-27T03:58:10;8.53;;;3.77;;
21022;SDS011;10669;51.076;3.714;2022-09-27T04:00:36;12.17;;;3.73;;
21022;SDS011;10669;51.076;3.714;2022-09-27T04:03:03;5.57;;;3.30;;
21022;SDS011;10669;51.076;3.714;2022-09-27T04:05:29;16.70;;;4.40;;
21022;SDS011;10669;51.076;3.714;2022-09-27T04:07:54;8.10;;;4.00;;
21022;SDS011;10669;51.076;3.714;2022-09-27T04:10:23;12.07;;;4.07;;
21022;SDS011;10669;51.076;3.714;2022-09-27T04:12:49;7.37;;;3.27;;
21022;SDS011;10669;51.076;3.714;2022-09-27T04:15:15;6.70;;;3.53;;
21022;SDS011;10669;51.076;3.714;2022-09-27T04:17:42;8.33;;;3.93;;
21022;SDS011;10669;51.076;3.714;2022-09-27T04:20:08;14.20;;;3.97;;
21022;SDS011;10669;51.076;3.714;2022-09-27T04:22:39;8.83;;;4.23;;
21022;SDS011;10669;51.076;3.714;2022-09-27T04:25:06;8.43;;;4.00;;
21022;SDS011;10669;51.076;3.714;2022-09-27T04:27:33;9.13;;;3.43;;
21022;SDS011;10669;51.076;3.714;2022-09-27T04:29:59;7.70;;;4.13;;
21022;SDS011;10669;51.076;3.714;2022-09-27T04:32:26;8.93;;;3.27;;
21022;SDS011;10669;51.076;3.714;2022-09-27T04:34:51;5.33;;;3.30;;
21022;SDS011;10669;51.076;3.714;2022-09-27T04:37:35;7.00;;;3.80;;
21022;SDS011;10669;51.076;3.714;2022-09-27T04:40:03;8.43;;;3.80;;
21022;SDS011;10669;51.076;3.714;2022-09-27T04:42:30;6.90;;;3.60;;
21022;SDS011;10669;51.076;3.714;2022-09-27T04:44:59;7.77;;;3.80;;
21022;SDS011;10669;51.076;3.714;2022-09-27T04:47:25;6.13;;;3.87;;
21022;SDS011;10669;51.076;3.714;2022-09-27T04:49:51;9.97;;;3.97;;
21022;SDS011;10669;51.076;3.714;2022-09-27T04:52:16;7.90;;;4.30;;
21022;SDS011;10669;51.076;3.714;2022-09-27T04:54:42;7.47;;;3.63;;
21022;SDS011;10669;51.076;3.714;2022-09-27T04:57:08;9.63;;;4.57;;
21022;SDS011;10669;51.076;3.714;2022-09-27T04:59:33;10.13;;;4.33;;
21022;SDS011;10669;51.076;3.714;2022-09-27T05:01:59;9.73;;;4.13;;
21022;SDS011;10669;51.076;3.714;2022-09-27T05:04:26;11.07;;;4.80;;
21022;SDS011;10669;51.076;3.714;2022-09-27T05:06:52;10.53;;;4.80;;
21022;SDS011;10669;51.076;3.714;2022-09-27T05:09:17;10.70;;;5.30;;
21022;SDS011;10669;51.076;3.714;2022-09-27T05:11:45;8.67;;;4.87;;
21022;SDS011;10669;51.076;3.714;2022-09-27T05:14:10;7.53;;;4.40;;
21022;SDS011;10669;51.076;3.714;2022-09-27T05:16:37;9.97;;;5.33;;
21022;SDS011;10669;51.076;3.714;2022-09-27T05:19:04;7.80;;;4.83;;
21022;SDS011;10669;51.076;3.714;2022-09-27T05:21:32;6.20;;;4.60;;
21022;SDS011;10669;51.076;3.714;2022-09-27T05:23:58;8.20;;;5.40;;
21022;SDS011;10669;51.076;3.714;2022-09-27T05:26:25;11.80;;;5.77;;
21022;SDS011;10669;51.076;3.714;2022-09-27T05:28:50;8.77;;;5.63;;
21022;SDS011;10669;51.076;3.714;2022-09-27T05:31:17;9.03;;;5.27;;
21022;SDS011;10669;51.076;3.714;2022-09-27T05:33:44;6.80;;;4.60;;
21022;SDS011;10669;51.076;3.714;2022-09-27T05:36:10;12.50;;;5.20;;
21022;SDS011;10669;51.076;3.714;2022-09-27T05:38:36;5.63;;;4.53;;
21022;SDS011;10669;51.076;3.714;2022-09-27T05:41:01;8.03;;;4.43;;
21022;SDS011;10669;51.076;3.714;2022-09-27T05:43:28;8.70;;;5.30;;
21022;SDS011;10669;51.076;3.714;2022-09-27T05:45:53;9.83;;;4.27;;
21022;SDS011;10669;51.076;3.714;2022-09-27T05:48:19;9.00;;;4.87;;
21022;SDS011;10669;51.076;3.714;2022-09-27T05:50:46;7.43;;;4.50;;
21022;SDS011;10669;51.076;3.714;2022-09-27T05:53:11;10.10;;;5.27;;
21022;SDS011;10669;51.076;3.714;2022-09-27T05:55:37;5.73;;;4.47;;
21022;SDS011;10669;51.076;3.714;2022-09-27T05:58:04;8.30;;;4.83;;
21022;SDS011;10669;51.076;3.714;2022-09-27T06:00:32;8.27;;;4.60;;
21022;SDS011;10669;51.076;3.714;2022-09-27T06:02:59;10.17;;;4.97;;
21022;SDS011;10669;51.076;3.714;2022-09-27T06:05:29;11.00;;;4.73;;
21022;SDS011;10669;51.076;3.714;2022-09-27T06:08:00;9.40;;;5.50;;
21022;SDS011;10669;51.076;3.714;2022-09-27T06:10:28;8.30;;;5.03;;
21022;SDS011;10669;51.076;3.714;2022-09-27T06:13:02;13.20;;;5.63;;
21022;SDS011;10669;51.076;3.714;2022-09-27T06:15:34;8.27;;;5.93;;
21022;SDS011;10669;51.076;3.714;2022-09-27T06:18:11;7.00;;;4.37;;
21022;SDS011;10669;51.076;3.714;2022-09-27T06:20:40;7.40;;;4.93;;
21022;SDS011;10669;51.076;3.714;2022-09-27T06:23:11;9.80;;;5.13;;
21022;SDS011;10669;51.076;3.714;2022-09-27T06:25:38;8.80;;;4.70;;
21022;SDS011;10669;51.076;3.714;2022-09-27T06:28:05;7.83;;;5.47;;
21022;SDS011;10669;51.076;3.714;2022-09-27T06:30:32;7.50;;;4.43;;
21022;SDS011;10669;51.076;3.714;2022-09-27T06:32:59;10.73;;;4.70;;
21022;SDS011;10669;51.076;3.714;2022-09-27T06:35:26;6.33;;;4.30;;
21022;SDS011;10669;51.076;3.714;2022-09-27T06:37:54;8.13;;;4.40;;
21022;SDS011;10669;51.076;3.714;2022-09-27T06:40:20;7.97;;;4.60;;
21022;SDS011;10669;51.076;3.714;2022-09-27T06:42:47;8.67;;;4.83;;
21022;SDS011;10669;51.076;3.714;2022-09-27T06:45:14;10.37;;;5.00;;
21022;SDS011;10669;51.076;3.714;2022-09-27T06:47:41;8.77;;;4.80;;
21022;SDS011;10669;51.076;3.714;2022-09-27T06:50:07;14.07;;;6.07;;
21022;SDS011;10669;51.076;3.714;2022-09-27T06:52:34;9.60;;;5.70;;
21022;SDS011;10669;51.076;3.714;2022-09-27T06:55:03;7.37;;;5.17;;
21022;SDS011;10669;51.076;3.714;2022-09-27T06:57:31;7.67;;;5.27;;
21022;SDS011;10669;51.076;3.714;2022-09-27T07:00:16;8.73;;;5.30;;
21022;SDS011;10669;51.076;3.714;2022-09-27T07:02:49;13.37;;;4.80;;
21022;SDS011;10669;51.076;3.714;2022-09-27T07:05:16;7.90;;;4.70;;
21022;SDS011;10669;51.076;3.714;2022-09-27T07:07:43;9.50;;;4.90;;
21022;SDS011;10669;51.076;3.714;2022-09-27T07:10:13;13.23;;;5.73;;
21022;SDS011;10669;51.076;3.714;2022-09-27T07:12:41;7.90;;;4.60;;
21022;SDS011;10669;51.076;3.714;2022-09-27T07:15:08;10.10;;;5.70;;
21022;SDS011;10669;51.076;3.714;2022-09-27T07:17:35;8.77;;;5.10;;
21022;SDS011;10669;51.076;3.714;2022-09-27T07:20:01;8.47;;;4.90;;
21022;SDS011;10669;51.076;3.714;2022-09-27T07:22:28;12.43;;;4.90;;
21022;SDS011;10669;51.076;3.714;2022-09-27T07:24:55;7.97;;;4.30;;
21022;SDS011;10669;51.076;3.714;2022-09-27T07:27:21;11.20;;;5.47;;
21022;SDS011;10669;51.076;3.714;2022-09-27T07:29:49;9.40;;;4.03;;
21022;SDS011;10669;51.076;3.714;2022-09-27T07:32:14;6.67;;;4.07;;
21022;SDS011;10669;51.076;3.714;2022-09-27T07:34:41;13.60;;;4.20;;
21022;SDS011;10669;51.076;3.714;2022-09-27T07:37:08;9.40;;;3.83;;
21022;SDS011;10669;51.076;3.714;2022-09-27T07:39:37;9.63;;;4.47;;
21022;SDS011;10669;51.076;3.714;2022-09-27T07:42:04;12.93;;;4.43;;
21022;SDS011;10669;51.076;3.714;2022-09-27T07:44:33;5.73;;;4.13;;
21022;SDS011;10669;51.076;3.714;2022-09-27T07:46:58;5.77;;;3.97;;
21022;SDS011;10669;51.076;3.714;2022-09-27T07:49:26;6.20;;;3.60;;
21022;SDS011;10669;51.076;3.714;2022-09-27T07:51:53;4.47;;;3.30;;
21022;SDS011;10669;51.076;3.714;2022-09-27T07:54:19;11.07;;;4.20;;
21022;SDS011;10669;51.076;3.714;2022-09-27T07:56:45;4.93;;;3.73;;
21022;SDS011;10669;51.076;3.714;2022-09-27T07:59:11;12.17;;;4.30;;
21022;SDS011;10669;51.076;3.714;2022-09-27T08:01:37;8.40;;;4.07;;
21022;SDS011;10669;51.076;3.714;2022-09-27T08:04:03;6.87;;;3.87;;
21022;SDS011;10669;51.076;3.714;2022-09-27T08:06:29;5.10;;;3.47;;
21022;SDS011;10669;51.076;3.714;2022-09-27T08:08:55;4.30;;;3.60;;
21022;SDS011;10669;51.076;3.714;2022-09-27T08:11:22;7.20;;;3.80;;
21022;SDS011;10669;51.076;3.714;2022-09-27T08:13:48;9.27;;;4.03;;
21022;SDS011;10669;51.076;3.714;2022-09-27T08:16:16;8.77;;;3.53;;
21022;SDS011;10669;51.076;3.714;2022-09-27T08:18:42;13.23;;;3.53;;
21022;SDS011;10669;51.076;3.714;2022-09-27T08:21:08;8.60;;;3.63;;
21022;SDS011;10669;51.076;3.714;2022-09-27T08:23:34;10.93;;;4.27;;
21022;SDS011;10669;51.076;3.714;2022-09-27T08:26:02;6.17;;;3.43;;
21022;SDS011;10669;51.076;3.714;2022-09-27T08:28:27;5.87;;;2.97;;
21022;SDS011;10669;51.076;3.714;2022-09-27T08:30:53;5.97;;;3.40;;
21022;SDS011;10669;51.076;3.714;2022-09-27T08:33:24;7.53;;;4.13;;
21022;SDS011;10669;51.076;3.714;2022-09-27T08:35:51;9.73;;;3.73;;
21022;SDS011;10669;51.076;3.714;2022-09-27T08:38:16;12.50;;;4.23;;
21022;SDS011;10669;51.076;3.714;2022-09-27T08:43:16;9.27;;;4.40;;
21022;SDS011;10669;51.076;3.714;2022-09-27T08:45:59;7.77;;;4.00;;
21022;SDS011;10669;51.076;3.714;2022-09-27T08:48:27;8.33;;;3.80;;
21022;SDS011;10669;51.076;3.714;2022-09-27T08:50:55;9.87;;;3.60;;
21022;SDS011;10669;51.076;3.714;2022-09-27T08:53:27;9.27;;;3.00;;
21022;SDS011;10669;51.076;3.714;2022-09-27T08:55:58;6.67;;;3.10;;
21022;SDS011;10669;51.076;3.714;2022-09-27T08:58:31;9.17;;;3.30;;
21022;SDS011;10669;51.076;3.714;2022-09-27T09:01:05;8.43;;;3.30;;
21022;SDS011;10669;51.076;3.714;2022-09-27T09:03:36;10.57;;;3.13;;
21022;SDS011;10669;51.076;3.714;2022-09-27T09:06:08;10.67;;;3.23;;
21022;SDS011;10669;51.076;3.714;2022-09-27T09:08:48;7.70;;;2.87;;
21022;SDS011;10669;51.076;3.714;2022-09-27T09:17:13;6.87;;;2.83;;
21022;SDS011;10669;51.076;3.714;2022-09-27T09:27:53;10.73;;;2.50;;
21022;SDS011;10669;51.076;3.714;2022-09-27T09:30:23;8.07;;;2.20;;
21022;SDS011;10669;51.076;3.714;2022-09-27T09:32:57;8.97;;;1.90;;
21022;SDS011;10669;51.076;3.714;2022-09-27T09:38:54;6.73;;;1.20;;
21022;SDS011;10669;51.076;3.714;2022-09-27T09:44:15;5.93;;;1.60;;
21022;SDS011;10669;51.076;3.714;2022-09-27T09:46:46;3.23;;;0.93;;
21022;SDS011;10669;51.076;3.714;2022-09-27T09:51:43;4.03;;;1.10;;
21022;SDS011;10669;51.076;3.714;2022-09-27T09:57:00;4.47;;;1.30;;
21022;SDS011;10669;51.076;3.714;2022-09-27T09:59:42;5.57;;;1.40;;
21022;SDS011;10669;51.076;3.714;2022-09-27T10:04:59;6.17;;;1.17;;
21022;SDS011;10669;51.076;3.714;2022-09-27T10:07:25;10.13;;;1.23;;
21022;SDS011;10669;51.076;3.714;2022-09-27T10:09:54;5.87;;;1.43;;
21022;SDS011;10669;51.076;3.714;2022-09-27T10:12:24;2.67;;;1.20;;
21022;SDS011;10669;51.076;3.714;2022-09-27T10:14:50;2.63;;;0.90;;
21022;SDS011;10669;51.076;3.714;2022-09-27T10:17:19;4.50;;;1.00;;
21022;SDS011;10669;51.076;3.714;2022-09-27T10:19:48;3.90;;;0.90;;
21022;SDS011;10669;51.076;3.714;2022-09-27T10:22:25;4.00;;;1.07;;
21022;SDS011;10669;51.076;3.714;2022-09-27T10:25:00;3.80;;;0.87;;
21022;SDS011;10669;51.076;3.714;2022-09-27T10:27:36;3.37;;;1.80;;
21022;SDS011;10669;51.076;3.714;2022-09-27T10:30:12;4.30;;;0.93;;
21022;SDS011;10669;51.076;3.714;2022-09-27T10:32:52;6.20;;;1.00;;
21022;SDS011;10669;51.076;3.714;2022-09-27T10:35:36;2.50;;;0.93;;
21022;SDS011;10669;51.076;3.714;2022-09-27T10:38:18;4.53;;;1.30;;
21022;SDS011;10669;51.076;3.714;2022-09-27T10:40:48;2.97;;;1.00;;
21022;SDS011;10669;51.076;3.714;2022-09-27T10:46:12;6.30;;;0.87;;
21022;SDS011;10669;51.076;3.714;2022-09-27T10:48:40;5.90;;;1.23;;
21022;SDS011;10669;51.076;3.714;2022-09-27T10:51:18;6.10;;;1.37;;
21022;SDS011;10669;51.076;3.714;2022-09-27T10:53:49;4.47;;;0.90;;
21022;SDS011;10669;51.076;3.714;2022-09-27T10:56:20;3.47;;;1.17;;
21022;SDS011;10669;51.076;3.714;2022-09-27T10:58:48;6.50;;;1.40;;
21022;SDS011;10669;51.076;3.714;2022-09-27T11:01:14;7.83;;;1.07;;
21022;SDS011;10669;51.076;3.714;2022-09-27T11:04:14;6.53;;;1.03;;
21022;SDS011;10669;51.076;3.714;2022-09-27T11:06:40;5.13;;;0.90;;
21022;SDS011;10669;51.076;3.714;2022-09-27T11:09:24;4.50;;;1.20;;
21022;SDS011;10669;51.076;3.714;2022-09-27T11:12:10;5.50;;;1.30;;
21022;SDS011;10669;51.076;3.714;2022-09-27T11:14:37;3.60;;;1.17;;
21022;SDS011;10669;51.076;3.714;2022-09-27T11:17:12;3.20;;;1.07;;
21022;SDS011;10669;51.076;3.714;2022-09-27T11:19:56;10.57;;;1.30;;
21022;SDS011;10669;51.076;3.714;2022-09-27T11:36:08;6.23;;;1.47;;
21022;SDS011;10669;51.076;3.714;2022-09-27T12:03:43;4.73;;;1.50;;
21022;SDS011;10669;51.076;3.714;2022-09-27T12:06:40;5.93;;;1.50;;
21022;SDS011;10669;51.076;3.714;2022-09-27T12:09:33;7.13;;;1.73;;
21022;SDS011;10669;51.076;3.714;2022-09-27T12:17:01;10.83;;;2.00;;
21022;SDS011;10669;51.076;3.714;2022-09-27T12:19:35;8.20;;;1.87;;
21022;SDS011;10669;51.076;3.714;2022-09-27T12:22:06;4.63;;;1.60;;
21022;SDS011;10669;51.076;3.714;2022-09-27T12:24:39;6.50;;;1.43;;
21022;SDS011;10669;51.076;3.714;2022-09-27T12:27:08;7.37;;;1.90;;
21022;SDS011;10669;51.076;3.714;2022-09-27T12:29:43;8.37;;;1.60;;
21022;SDS011;10669;51.076;3.714;2022-09-27T12:32:19;8.53;;;1.57;;
21022;SDS011;10669;51.076;3.714;2022-09-27T12:37:44;8.57;;;1.93;;
21022;SDS011;10669;51.076;3.714;2022-09-27T12:40:25;4.33;;;1.30;;
21022;SDS011;10669;51.076;3.714;2022-09-27T12:43:08;5.27;;;1.47;;
21022;SDS011;10669;51.076;3.714;2022-09-27T12:48:11;4.40;;;1.67;;
21022;SDS011;10669;51.076;3.714;2022-09-27T12:50:48;5.17;;;1.50;;
21022;SDS011;10669;51.076;3.714;2022-09-27T12:53:22;14.43;;;1.50;;
21022;SDS011;10669;51.076;3.714;2022-09-27T13:07:04;2.30;;;0.97;;
21022;SDS011;10669;51.076;3.714;2022-09-27T13:09:54;2.40;;;0.97;;
21022;SDS011;10669;51.076;3.714;2022-09-27T13:12:50;2.73;;;0.70;;
21022;SDS011;10669;51.076;3.714;2022-09-27T13:17:56;2.50;;;0.73;;
21022;SDS011;10669;51.076;3.714;2022-09-27T13:22:59;3.67;;;0.97;;
21022;SDS011;10669;51.076;3.714;2022-09-27T13:31:11;5.60;;;1.23;;
21022;SDS011;10669;51.076;3.714;2022-09-27T13:33:43;8.10;;;1.17;;
21022;SDS011;10669;51.076;3.714;2022-09-27T13:47:00;5.77;;;1.30;;
21022;SDS011;10669;51.076;3.714;2022-09-27T13:49:38;4.00;;;1.30;;
21022;SDS011;10669;51.076;3.714;2022-09-27T13:54:52;6.27;;;1.33;;
21022;SDS011;10669;51.076;3.714;2022-09-27T14:00:17;4.50;;;1.10;;
21022;SDS011;10669;51.076;3.714;2022-09-27T14:03:05;4.60;;;1.40;;
21022;SDS011;10669;51.076;3.714;2022-09-27T14:05:58;7.47;;;1.53;;
21022;SDS011;10669;51.076;3.714;2022-09-27T14:08:35;5.73;;;1.10;;
21022;SDS011;10669;51.076;3.714;2022-09-27T14:14:02;4.33;;;1.60;;
21022;SDS011;10669;51.076;3.714;2022-09-27T14:16:31;5.13;;;1.80;;
21022;SDS011;10669;51.076;3.714;2022-09-27T14:18:59;8.10;;;1.57;;
21022;SDS011;10669;51.076;3.714;2022-09-27T14:21:30;7.90;;;1.40;;
21022;SDS011;10669;51.076;3.714;2022-09-27T14:29:44;8.00;;;1.90;;
21022;SDS011;10669;51.076;3.714;2022-09-27T14:32:44;3.97;;;1.73;;
21022;SDS011;10669;51.076;3.714;2022-09-27T14:35:19;3.70;;;1.63;;
21022;SDS011;10669;51.076;3.714;2022-09-27T14:38:06;4.10;;;1.30;;
21022;SDS011;10669;51.076;3.714;2022-09-27T14:40:39;5.27;;;1.40;;
21022;SDS011;10669;51.076;3.714;2022-09-27T14:43:15;2.00;;;1.27;;
21022;SDS011;10669;51.076;3.714;2022-09-27T14:45:44;4.37;;;1.37;;
21022;SDS011;10669;51.076;3.714;2022-09-27T14:48:21;5.90;;;1.50;;
21022;SDS011;10669;51.076;3.714;2022-09-27T14:53:45;1.23;;;0.87;;
21022;SDS011;10669;51.076;3.714;2022-09-27T14:56:21;1.67;;;1.10;;
21022;SDS011;10669;51.076;3.714;2022-09-27T14:58:56;4.33;;;1.20;;
21022;SDS011;10669;51.076;3.714;2022-09-27T15:01:35;4.93;;;1.30;;
21022;SDS011;10669;51.076;3.714;2022-09-27T15:04:04;4.17;;;1.20;;
21022;SDS011;10669;51.076;3.714;2022-09-27T15:06:32;4.10;;;1.33;;
21022;SDS011;10669;51.076;3.714;2022-09-27T15:09:00;5.80;;;1.60;;
21022;SDS011;10669;51.076;3.714;2022-09-27T15:11:27;8.50;;;1.53;;
21022;SDS011;10669;51.076;3.714;2022-09-27T15:13:57;3.47;;;1.60;;
21022;SDS011;10669;51.076;3.714;2022-09-27T15:16:25;6.50;;;2.03;;
21022;SDS011;10669;51.076;3.714;2022-09-27T15:18:59;3.17;;;1.70;;
21022;SDS011;10669;51.076;3.714;2022-09-27T15:21:29;5.17;;;1.67;;
21022;SDS011;10669;51.076;3.714;2022-09-27T15:23:58;7.50;;;1.93;;
21022;SDS011;10669;51.076;3.714;2022-09-27T15:26:40;7.20;;;1.90;;
21022;SDS011;10669;51.076;3.714;2022-09-27T15:29:22;7.33;;;2.20;;
21022;SDS011;10669;51.076;3.714;2022-09-27T15:34:26;7.27;;;1.80;;
21022;SDS011;10669;51.076;3.714;2022-09-27T15:36:54;9.80;;;1.80;;
21022;SDS011;10669;51.076;3.714;2022-09-27T15:39:32;7.63;;;2.50;;
21022;SDS011;10669;51.076;3.714;2022-09-27T15:42:06;8.50;;;1.97;;
21022;SDS011;10669;51.076;3.714;2022-09-27T15:44:35;8.67;;;2.20;;
21022;SDS011;10669;51.076;3.714;2022-09-27T15:55:14;6.47;;;1.93;;
21022;SDS011;10669;51.076;3.714;2022-09-27T15:57:42;15.97;;;2.63;;
21022;SDS011;10669;51.076;3.714;2022-09-27T16:00:12;11.93;;;2.80;;
21022;SDS011;10669;51.076;3.714;2022-09-27T16:02:42;13.53;;;3.27;;
21022;SDS011;10669;51.076;3.714;2022-09-27T16:05:08;12.63;;;2.97;;
21022;SDS011;10669;51.076;3.714;2022-09-27T16:07:35;16.77;;;4.23;;
21022;SDS011;10669;51.076;3.714;2022-09-27T16:10:00;12.87;;;3.43;;
21022;SDS011;10669;51.076;3.714;2022-09-27T16:12:26;12.60;;;3.43;;
21022;SDS011;10669;51.076;3.714;2022-09-27T16:14:54;9.20;;;3.03;;
21022;SDS011;10669;51.076;3.714;2022-09-27T16:17:20;11.07;;;3.43;;
21022;SDS011;10669;51.076;3.714;2022-09-27T16:19:46;16.10;;;4.27;;
21022;SDS011;10669;51.076;3.714;2022-09-27T16:22:12;14.93;;;3.83;;
21022;SDS011;10669;51.076;3.714;2022-09-27T16:24:38;11.47;;;4.27;;
21022;SDS011;10669;51.076;3.714;2022-09-27T16:27:04;17.13;;;5.03;;
21022;SDS011;10669;51.076;3.714;2022-09-27T16:29:30;12.60;;;4.83;;
21022;SDS011;10669;51.076;3.714;2022-09-27T16:31:56;13.13;;;4.17;;
21022;SDS011;10669;51.076;3.714;2022-09-27T16:34:21;14.40;;;4.33;;
21022;SDS011;10669;51.076;3.714;2022-09-27T16:36:50;13.23;;;5.40;;
21022;SDS011;10669;51.076;3.714;2022-09-27T16:39:15;11.97;;;4.80;;
21022;SDS011;10669;51.076;3.714;2022-09-27T16:41:41;14.23;;;4.77;;
21022;SDS011;10669;51.076;3.714;2022-09-27T16:44:08;12.57;;;4.63;;
21022;SDS011;10669;51.076;3.714;2022-09-27T16:46:38;18.30;;;5.10;;
21022;SDS011;10669;51.076;3.714;2022-09-27T16:49:04;12.07;;;4.73;;
21022;SDS011;10669;51.076;3.714;2022-09-27T16:51:50;13.07;;;4.77;;
21022;SDS011;10669;51.076;3.714;2022-09-27T16:54:24;12.03;;;3.73;;
21022;SDS011;10669;51.076;3.714;2022-09-27T16:56:53;12.60;;;3.90;;
21022;SDS011;10669;51.076;3.714;2022-09-27T16:59:19;12.97;;;3.57;;
21022;SDS011;10669;51.076;3.714;2022-09-27T17:01:45;14.80;;;3.90;;
21022;SDS011;10669;51.076;3.714;2022-09-27T17:04:11;19.23;;;4.47;;
21022;SDS011;10669;51.076;3.714;2022-09-27T17:06:38;12.80;;;5.10;;
21022;SDS011;10669;51.076;3.714;2022-09-27T17:09:05;13.57;;;5.30;;
21022;SDS011;10669;51.076;3.714;2022-09-27T17:11:31;16.90;;;4.40;;
21022;SDS011;10669;51.076;3.714;2022-09-27T17:13:57;12.47;;;3.60;;
21022;SDS011;10669;51.076;3.714;2022-09-27T17:16:23;10.43;;;3.70;;
21022;SDS011;10669;51.076;3.714;2022-09-27T17:18:49;5.60;;;2.10;;
21022;SDS011;10669;51.076;3.714;2022-09-27T17:21:15;4.63;;;2.23;;
21022;SDS011;10669;51.076;3.714;2022-09-27T17:23:41;6.20;;;2.07;;
21022;SDS011;10669;51.076;3.714;2022-09-27T17:26:08;5.43;;;2.03;;
21022;SDS011;10669;51.076;3.714;2022-09-27T17:28:43;3.07;;;1.67;;
21022;SDS011;10669;51.076;3.714;2022-09-27T17:31:09;4.10;;;1.90;;
21022;SDS011;10669;51.076;3.714;2022-09-27T17:33:41;3.20;;;1.60;;
21022;SDS011;10669;51.076;3.714;2022-09-27T17:36:12;3.47;;;2.10;;
21022;SDS011;10669;51.076;3.714;2022-09-27T17:38:39;5.93;;;2.17;;
21022;SDS011;10669;51.076;3.714;2022-09-27T17:41:06;4.10;;;1.93;;
21022;SDS011;10669;51.076;3.714;2022-09-27T17:43:39;4.33;;;1.70;;
21022;SDS011;10669;51.076;3.714;2022-09-27T17:46:16;4.77;;;1.60;;
21022;SDS011;10669;51.076;3.714;2022-09-27T17:48:44;2.07;;;1.50;;
21022;SDS011;10669;51.076;3.714;2022-09-27T17:51:29;5.07;;;2.00;;
21022;SDS011;10669;51.076;3.714;2022-09-27T17:53:56;3.50;;;2.17;;
21022;SDS011;10669;51.076;3.714;2022-09-27T17:56:23;5.63;;;2.07;;
21022;SDS011;10669;51.076;3.714;2022-09-27T17:58:49;2.90;;;1.80;;
21022;SDS011;10669;51.076;3.714;2022-09-27T18:01:16;3.90;;;2.30;;
21022;SDS011;10669;51.076;3.714;2022-09-27T18:03:44;4.27;;;2.43;;
21022;SDS011;10669;51.076;3.714;2022-09-27T18:06:10;10.50;;;2.50;;
21022;SDS011;10669;51.076;3.714;2022-09-27T18:08:38;5.13;;;2.63;;
21022;SDS011;10669;51.076;3.714;2022-09-27T18:11:05;6.27;;;2.73;;
21022;SDS011;10669;51.076;3.714;2022-09-27T18:13:36;7.77;;;3.40;;
21022;SDS011;10669;51.076;3.714;2022-09-27T18:16:14;8.07;;;3.57;;
21022;SDS011;10669;51.076;3.714;2022-09-27T18:18:42;6.57;;;3.10;;